createdAt,value
2023-01-30T00:01:39.636Z,1.10
2023-01-30T00:04:06.328Z,1.17
2023-01-30T00:06:32.905Z,1.38
2023-01-30T00:08:59.492Z,1.00
2023-01-30T00:11:28.666Z,1.00
2023-01-30T00:13:55.205Z,1.50
2023-01-30T00:16:21.811Z,0.90
2023-01-30T00:18:48.463Z,1.10
2023-01-30T00:21:15.528Z,1.20
2023-01-30T00:23:42.528Z,1.30
2023-01-30T00:26:10.084Z,1.17
2023-01-30T00:28:37.590Z,1.00
2023-01-30T00:31:04.628Z,1.30
2023-01-30T00:33:31.207Z,0.95
2023-01-30T00:35:58.070Z,0.80
2023-01-30T00:38:25.167Z,1.00
2023-01-30T00:40:52.008Z,1.30
2023-01-30T00:43:38.606Z,1.20
2023-01-30T00:46:32.110Z,1.35
2023-01-30T00:48:58.650Z,1.50
2023-01-30T00:51:25.201Z,1.27
2023-01-30T00:53:51.775Z,1.40
2023-01-30T00:56:18.347Z,1.10
2023-01-30T00:58:44.924Z,1.20
2023-01-30T01:01:11.527Z,1.10
2023-01-30T01:03:38.088Z,1.33
2023-01-30T01:06:04.906Z,1.40
2023-01-30T01:08:31.468Z,1.17
2023-01-30T01:10:58.556Z,1.20
2023-01-30T01:13:25.139Z,1.42
2023-01-30T01:15:51.696Z,1.10
2023-01-30T01:18:18.237Z,1.17
2023-01-30T01:20:44.789Z,1.20
2023-01-30T01:23:11.497Z,1.10
2023-01-30T01:25:38.080Z,1.30
2023-01-30T01:28:04.900Z,1.13
2023-01-30T01:30:31.468Z,1.07
2023-01-30T01:32:58.054Z,1.25
2023-01-30T01:35:24.640Z,1.20
2023-01-30T01:37:54.630Z,1.20
2023-01-30T01:40:40.324Z,1.15
2023-01-30T01:43:18.138Z,1.27
2023-01-30T01:45:45.709Z,1.40
2023-01-30T01:48:16.395Z,1.20
2023-01-30T01:50:48.397Z,1.48
2023-01-30T01:53:18.046Z,1.02
2023-01-30T01:55:46.710Z,1.50
2023-01-30T01:58:21.043Z,1.02
2023-01-30T02:00:48.305Z,1.30
2023-01-30T02:03:22.100Z,1.42
2023-01-30T02:05:51.082Z,1.15
2023-01-30T02:08:28.749Z,1.30
2023-01-30T02:11:07.000Z,1.10
2023-01-30T02:13:34.021Z,1.20
2023-01-30T02:16:02.505Z,1.35
2023-01-30T02:18:29.710Z,1.38
2023-01-30T02:21:41.220Z,1.20
2023-01-30T02:24:46.249Z,1.20
2023-01-30T02:27:42.400Z,1.10
2023-01-30T02:30:33.681Z,1.27
2023-01-30T02:33:00.213Z,1.10
2023-01-30T02:35:42.332Z,1.60
2023-01-30T02:38:42.195Z,1.00
2023-01-30T02:41:18.967Z,1.35
2023-01-30T02:44:05.472Z,1.40
2023-01-30T02:46:37.936Z,1.60
2023-01-30T02:49:29.323Z,1.33
2023-01-30T02:51:56.725Z,1.33
2023-01-30T02:54:23.400Z,1.15
2023-01-30T02:56:52.914Z,1.40
2023-01-30T02:59:28.949Z,2.03
2023-01-30T03:01:59.672Z,1.17
2023-01-30T03:04:43.810Z,1.10
2023-01-30T03:07:25.440Z,1.30
2023-01-30T03:10:01.747Z,1.60
2023-01-30T03:13:10.447Z,1.25
2023-01-30T03:15:43.334Z,1.50
2023-01-30T03:18:10.064Z,1.27
2023-01-30T03:20:38.090Z,1.20
2023-01-30T03:23:07.986Z,1.50
2023-01-30T03:25:36.285Z,1.27
2023-01-30T03:28:03.951Z,1.53
2023-01-30T03:30:30.587Z,1.27
2023-01-30T03:32:57.134Z,1.58
2023-01-30T03:35:24.005Z,1.33
2023-01-30T03:37:50.737Z,1.33
2023-01-30T03:40:17.819Z,1.30
2023-01-30T03:42:44.472Z,1.30
2023-01-30T03:45:11.591Z,1.20
2023-01-30T03:47:38.162Z,1.58
2023-01-30T03:50:05.215Z,1.30
2023-01-30T03:52:31.752Z,1.60
2023-01-30T03:54:58.299Z,1.25
2023-01-30T03:57:24.846Z,1.30
2023-01-30T03:59:51.471Z,1.58
2023-01-30T04:02:23.045Z,1.30
2023-01-30T04:04:49.876Z,1.50
2023-01-30T04:07:16.611Z,1.40
2023-01-30T04:09:43.288Z,1.30
2023-01-30T04:12:09.856Z,1.38
2023-01-30T04:14:36.464Z,1.40
2023-01-30T04:17:03.048Z,1.23
2023-01-30T04:19:29.658Z,1.10
2023-01-30T04:21:56.240Z,1.23
2023-01-30T04:24:23.029Z,1.67
2023-01-30T04:26:49.580Z,1.45
2023-01-30T04:29:16.153Z,1.37
2023-01-30T04:31:42.825Z,1.30
2023-01-30T04:34:09.448Z,1.30
2023-01-30T04:36:36.966Z,1.30
2023-01-30T04:39:03.870Z,1.17
2023-01-30T04:41:30.480Z,1.33
2023-01-30T04:43:57.046Z,1.10
2023-01-30T04:46:23.586Z,1.27
2023-01-30T04:48:50.152Z,1.40
2023-01-30T04:51:16.705Z,1.25
2023-01-30T04:53:43.290Z,1.40
2023-01-30T04:56:09.841Z,1.60
2023-01-30T04:58:36.587Z,1.30
2023-01-30T05:01:14.164Z,1.20
2023-01-30T05:03:40.775Z,1.35
2023-01-30T05:06:07.647Z,1.10
2023-01-30T05:08:34.267Z,1.67
2023-01-30T05:11:00.833Z,1.40
2023-01-30T05:13:27.379Z,1.23
2023-01-30T05:15:53.932Z,1.40
2023-01-30T05:18:20.502Z,1.40
2023-01-30T05:20:47.035Z,1.13
2023-01-30T05:23:13.711Z,1.55
2023-01-30T05:25:40.271Z,1.42
2023-01-30T05:28:06.958Z,1.25
2023-01-30T05:30:33.650Z,1.30
2023-01-30T05:33:00.272Z,1.23
2023-01-30T05:35:26.843Z,1.38
2023-01-30T05:37:53.418Z,1.20
2023-01-30T05:40:20.006Z,1.10
2023-01-30T05:42:46.553Z,1.37
2023-01-30T05:45:13.137Z,1.40
2023-01-30T05:47:39.926Z,1.30
2023-01-30T05:50:06.739Z,1.35
2023-01-30T05:52:33.324Z,1.30
2023-01-30T05:54:59.882Z,1.37
2023-01-30T05:57:26.425Z,1.27
2023-01-30T05:59:55.787Z,1.20
2023-01-30T06:02:22.368Z,1.38
2023-01-30T06:04:48.940Z,1.20
2023-01-30T06:07:15.505Z,1.47
2023-01-30T06:09:42.044Z,0.98
2023-01-30T06:12:08.822Z,1.40
2023-01-30T06:14:35.384Z,0.95
2023-01-30T06:17:01.959Z,1.30
2023-01-30T06:19:28.530Z,1.20
2023-01-30T06:21:55.073Z,1.20
2023-01-30T06:24:21.644Z,1.17
2023-01-30T06:26:48.250Z,1.40
2023-01-30T06:29:14.924Z,1.33
2023-01-30T06:31:41.571Z,1.40
2023-01-30T06:34:08.159Z,1.20
2023-01-30T06:36:34.785Z,1.27
2023-01-30T06:39:01.345Z,1.30
2023-01-30T06:41:27.877Z,1.15
2023-01-30T06:43:55.540Z,1.50
2023-01-30T06:46:22.093Z,1.45
2023-01-30T06:48:48.633Z,1.50
2023-01-30T06:51:15.186Z,1.67
2023-01-30T06:53:41.733Z,1.55
2023-01-30T06:56:08.351Z,1.20
2023-01-30T06:58:34.933Z,1.40
2023-01-30T07:01:02.332Z,1.35
2023-01-30T07:03:28.909Z,1.13
2023-01-30T07:05:55.455Z,1.30
2023-01-30T07:08:24.006Z,1.60
2023-01-30T07:10:51.103Z,1.50
2023-01-30T07:13:17.780Z,1.40
2023-01-30T07:15:44.716Z,1.35
2023-01-30T07:18:11.272Z,1.60
2023-01-30T07:20:37.856Z,1.50
2023-01-30T07:23:04.567Z,1.27
2023-01-30T07:25:31.142Z,1.27
2023-01-30T07:27:59.748Z,1.30
2023-01-30T07:30:28.264Z,1.10
2023-01-30T07:32:57.855Z,1.30
2023-01-30T07:35:25.710Z,1.10
2023-01-30T07:37:52.313Z,1.55
2023-01-30T07:40:20.489Z,1.60
2023-01-30T07:43:00.614Z,1.60
2023-01-30T07:45:44.402Z,1.43
2023-01-30T07:48:12.761Z,1.50
2023-01-30T07:50:39.366Z,1.42
2023-01-30T07:53:07.653Z,1.30
2023-01-30T07:55:34.519Z,1.50
2023-01-30T07:58:01.167Z,1.13
2023-01-30T08:00:27.750Z,1.23
2023-01-30T08:02:54.360Z,1.33
2023-01-30T08:05:20.912Z,1.60
2023-01-30T08:07:47.613Z,1.30
2023-01-30T08:10:14.316Z,1.20
2023-01-30T08:12:41.201Z,1.48
2023-01-30T08:15:09.075Z,1.40
2023-01-30T08:17:35.655Z,0.95
2023-01-30T08:20:02.215Z,1.30
2023-01-30T08:22:29.119Z,1.70
2023-01-30T08:24:55.690Z,1.52
2023-01-30T08:27:22.253Z,1.52
2023-01-30T08:29:48.876Z,1.25
2023-01-30T08:32:15.976Z,1.30
2023-01-30T08:34:42.609Z,1.30
2023-01-30T08:37:09.163Z,1.30
2023-01-30T08:39:37.282Z,1.17
2023-01-30T08:42:04.055Z,1.30
2023-01-30T08:44:30.623Z,1.10
2023-01-30T08:46:57.178Z,1.00
2023-01-30T08:49:23.717Z,1.27
2023-01-30T08:51:50.258Z,1.40
2023-01-30T08:54:16.831Z,1.25
2023-01-30T08:56:43.414Z,1.30
2023-01-30T08:59:09.971Z,1.20
2023-01-30T09:01:38.153Z,1.30
2023-01-30T09:04:04.862Z,1.45
2023-01-30T09:06:31.536Z,1.25
2023-01-30T09:08:59.715Z,1.25
2023-01-30T09:11:26.306Z,1.37
2023-01-30T09:13:53.216Z,1.10
2023-01-30T09:16:19.827Z,1.30
2023-01-30T09:18:46.423Z,1.20
2023-01-30T09:21:13.377Z,0.98
2023-01-30T09:23:40.238Z,1.10
2023-01-30T09:26:06.884Z,1.10
2023-01-30T09:28:34.284Z,1.10
2023-01-30T09:31:01.944Z,1.23
2023-01-30T09:33:28.726Z,1.40
2023-01-30T09:35:55.809Z,1.47
2023-01-30T09:38:22.355Z,1.05
2023-01-30T09:40:57.628Z,1.10
2023-01-30T09:43:46.044Z,1.08
2023-01-30T09:46:35.169Z,1.10
2023-01-30T09:49:15.228Z,1.30
2023-01-30T09:51:53.945Z,1.27
2023-01-30T09:54:32.472Z,1.20
2023-01-30T09:57:22.904Z,1.02
2023-01-30T10:00:12.414Z,1.20
2023-01-30T10:02:45.119Z,1.30
2023-01-30T10:05:12.362Z,1.30
2023-01-30T10:08:16.156Z,1.02
2023-01-30T10:10:55.044Z,1.10
2023-01-30T10:13:47.395Z,1.02
2023-01-30T10:16:20.128Z,1.17
2023-01-30T10:19:00.255Z,1.17
2023-01-30T10:21:47.668Z,1.20
2023-01-30T10:24:46.458Z,1.25
2023-01-30T10:27:16.541Z,0.98
2023-01-30T10:29:53.322Z,1.57
2023-01-30T10:32:41.768Z,0.90
2023-01-30T10:35:20.147Z,1.33
2023-01-30T10:37:50.633Z,1.05
2023-01-30T10:40:34.019Z,1.00
2023-01-30T10:43:13.020Z,1.50
2023-01-30T10:45:49.070Z,1.20
2023-01-30T10:48:46.081Z,1.00
2023-01-30T10:51:47.150Z,1.20
2023-01-30T10:54:19.394Z,1.00
2023-01-30T10:57:02.147Z,1.10
2023-01-30T10:59:50.577Z,1.23
2023-01-30T11:02:25.279Z,0.90
2023-01-30T11:04:59.485Z,0.90
2023-01-30T11:07:32.848Z,0.93
2023-01-30T11:10:00.495Z,1.10
2023-01-30T11:12:27.228Z,1.20
2023-01-30T11:15:00.855Z,0.85
2023-01-30T11:17:30.447Z,0.90
2023-01-30T11:19:58.267Z,1.15
2023-01-30T11:22:28.575Z,1.17
2023-01-30T11:25:09.996Z,1.00
2023-01-30T11:27:37.103Z,0.90
2023-01-30T11:30:22.130Z,1.00
2023-01-30T11:32:49.651Z,0.70
2023-01-30T11:35:16.222Z,1.20
2023-01-30T11:37:44.886Z,0.90
2023-01-30T11:40:17.752Z,0.90
2023-01-30T11:42:49.823Z,1.10
2023-01-30T11:45:18.603Z,1.02
2023-01-30T11:47:57.868Z,0.80
2023-01-30T11:50:33.341Z,0.85
2023-01-30T11:53:33.701Z,1.05
2023-01-30T11:56:08.794Z,1.20
2023-01-30T11:58:39.211Z,0.80
2023-01-30T12:01:09.361Z,0.80
2023-01-30T12:03:39.991Z,0.65
2023-01-30T12:06:06.615Z,0.75
2023-01-30T12:08:44.069Z,0.90
2023-01-30T12:11:47.582Z,0.88
2023-01-30T12:14:32.342Z,0.80
2023-01-30T12:17:12.388Z,0.90
2023-01-30T12:19:54.299Z,1.10
2023-01-30T12:22:26.314Z,0.70
2023-01-30T12:25:00.500Z,0.88
2023-01-30T12:27:43.506Z,0.90
2023-01-30T12:30:21.031Z,0.80
2023-01-30T12:32:47.708Z,0.85
2023-01-30T12:35:19.481Z,1.00
2023-01-30T12:38:18.737Z,1.10
2023-01-30T12:40:51.846Z,0.70
2023-01-30T12:43:24.403Z,0.82
2023-01-30T12:46:12.808Z,0.80
2023-01-30T12:49:12.063Z,0.73
2023-01-30T12:51:54.001Z,0.75
2023-01-30T12:54:30.754Z,0.80
2023-01-30T12:57:19.189Z,0.75
2023-01-30T13:00:23.569Z,1.10
2023-01-30T13:03:10.020Z,0.70
2023-01-30T13:05:53.999Z,0.80
2023-01-30T13:08:55.004Z,0.60
2023-01-30T13:11:37.418Z,0.90
2023-01-30T13:14:07.093Z,0.80
2023-01-30T13:16:42.342Z,0.90
2023-01-30T13:19:25.349Z,0.90
2023-01-30T13:22:22.659Z,0.77
2023-01-30T13:25:04.398Z,0.80
2023-01-30T13:27:35.417Z,0.93
2023-01-30T13:30:05.657Z,0.70
2023-01-30T13:32:43.764Z,0.70
2023-01-30T13:35:22.208Z,1.10
2023-01-30T13:37:49.969Z,0.70
2023-01-30T13:40:20.502Z,0.70
2023-01-30T13:42:53.529Z,0.73
2023-01-30T13:45:22.948Z,0.90
2023-01-30T13:48:08.105Z,0.80
2023-01-30T13:51:04.229Z,0.80
2023-01-30T13:53:58.445Z,0.80
2023-01-30T13:56:43.148Z,0.85
2023-01-30T13:59:40.832Z,0.70
2023-01-30T14:02:09.508Z,0.80
2023-01-30T14:04:43.175Z,0.90
2023-01-30T14:07:12.738Z,0.60
2023-01-30T14:09:45.425Z,0.60
2023-01-30T14:12:19.479Z,0.75
2023-01-30T14:15:12.216Z,1.07
2023-01-30T14:17:39.030Z,0.85
2023-01-30T14:20:15.837Z,0.75
2023-01-30T14:22:54.164Z,1.10
2023-01-30T14:25:23.420Z,0.85
2023-01-30T14:27:52.815Z,0.73
2023-01-30T14:30:31.980Z,1.10
2023-01-30T14:33:00.299Z,0.70
2023-01-30T14:35:33.066Z,0.95
2023-01-30T14:38:08.385Z,0.80
2023-01-30T14:40:36.368Z,0.80
2023-01-30T14:43:12.023Z,0.50
2023-01-30T14:46:01.326Z,0.70
2023-01-30T14:48:28.932Z,0.70
2023-01-30T14:51:29.264Z,0.88
2023-01-30T14:54:14.595Z,1.17
2023-01-30T14:57:06.373Z,0.80
2023-01-30T14:59:39.478Z,0.63
2023-01-30T15:02:15.336Z,0.70
2023-01-30T15:05:29.832Z,0.70
2023-01-30T15:07:58.965Z,0.70
2023-01-30T15:10:59.299Z,0.80
2023-01-30T15:13:57.689Z,0.70
2023-01-30T15:16:34.417Z,0.80
2023-01-30T15:19:14.764Z,0.80
2023-01-30T15:22:12.533Z,0.90
2023-01-30T15:25:36.147Z,0.80
2023-01-30T15:28:17.313Z,0.88
2023-01-30T15:30:57.234Z,0.60
2023-01-30T15:33:31.534Z,0.52
2023-01-30T15:35:59.340Z,0.80
2023-01-30T15:38:33.559Z,0.68
2023-01-30T15:41:05.014Z,0.50
2023-01-30T15:43:50.043Z,0.60
2023-01-30T15:46:49.014Z,0.60
2023-01-30T15:49:47.242Z,0.70
2023-01-30T15:52:18.982Z,0.60
2023-01-30T15:54:51.670Z,0.70
2023-01-30T15:57:26.026Z,0.77
2023-01-30T15:59:54.289Z,0.55
2023-01-30T16:02:28.904Z,0.70
2023-01-30T16:05:24.844Z,0.70
2023-01-30T16:07:53.549Z,0.60
2023-01-30T16:10:25.973Z,0.60
2023-01-30T16:12:56.004Z,0.70
2023-01-30T16:15:44.074Z,0.87
2023-01-30T16:18:39.970Z,0.50
2023-01-30T16:21:10.290Z,0.50
2023-01-30T16:23:41.989Z,0.70
2023-01-30T16:26:13.510Z,0.68
2023-01-30T16:28:40.846Z,0.60
2023-01-30T16:31:09.931Z,0.70
2023-01-30T16:33:37.432Z,0.68
2023-01-30T16:36:26.716Z,0.90
2023-01-30T16:38:54.707Z,0.98
2023-01-30T16:41:39.298Z,0.57
2023-01-30T16:44:18.592Z,0.85
2023-01-30T16:46:56.001Z,0.60
2023-01-30T16:49:27.063Z,1.10
2023-01-30T16:52:03.703Z,0.60
2023-01-30T16:54:31.942Z,0.80
2023-01-30T16:56:59.772Z,1.00
2023-01-30T16:59:34.760Z,0.60
2023-01-30T17:02:03.100Z,0.70
2023-01-30T17:04:31.907Z,0.70
2023-01-30T17:07:04.250Z,0.77
2023-01-30T17:09:46.069Z,0.70
2023-01-30T17:12:35.125Z,0.77
2023-01-30T17:15:13.608Z,0.55
2023-01-30T17:17:40.895Z,0.68
2023-01-30T17:20:08.470Z,0.73
2023-01-30T17:22:35.362Z,0.50
2023-01-30T17:25:03.595Z,0.50
2023-01-30T17:27:30.735Z,0.40
2023-01-30T17:29:57.612Z,0.57
2023-01-30T17:32:24.209Z,0.60
2023-01-30T17:34:50.815Z,0.60
2023-01-30T17:37:20.163Z,0.70
2023-01-30T17:39:47.544Z,0.70
2023-01-30T17:42:15.283Z,0.70
2023-01-30T17:44:42.027Z,0.77
2023-01-30T17:47:11.137Z,0.60
2023-01-30T17:49:37.724Z,0.75
2023-01-30T17:52:04.560Z,0.80
2023-01-30T17:54:31.093Z,0.60
2023-01-30T17:57:05.992Z,0.70
2023-01-30T17:59:32.762Z,0.80
2023-01-30T18:01:59.470Z,0.70
2023-01-30T18:04:26.054Z,1.00
2023-01-30T18:06:55.936Z,0.90
2023-01-30T18:09:27.038Z,0.90
2023-01-30T18:11:53.847Z,0.90
2023-01-30T18:14:22.178Z,0.80
2023-01-30T18:16:49.575Z,0.80
2023-01-30T18:19:24.110Z,0.70
2023-01-30T18:21:50.916Z,0.80
2023-01-30T18:24:18.423Z,1.02
2023-01-30T18:26:45.956Z,0.75
2023-01-30T18:29:13.236Z,1.00
2023-01-30T18:31:40.656Z,0.90
2023-01-30T18:34:07.393Z,0.77
2023-01-30T18:36:35.276Z,0.80
2023-01-30T18:39:01.997Z,1.00
2023-01-30T18:41:29.054Z,0.80
2023-01-30T18:44:01.769Z,1.30
2023-01-30T18:46:28.684Z,1.00
2023-01-30T18:48:56.089Z,0.90
2023-01-30T18:51:25.861Z,0.90
2023-01-30T18:53:53.479Z,1.10
2023-01-30T18:56:22.619Z,0.77
2023-01-30T18:58:56.392Z,1.00
2023-01-30T19:01:28.119Z,1.05
2023-01-30T19:03:56.264Z,0.85
2023-01-30T19:06:23.308Z,1.00
2023-01-30T19:08:49.861Z,0.95
2023-01-30T19:11:36.653Z,0.90
2023-01-30T19:14:03.935Z,1.20
2023-01-30T19:16:31.966Z,1.02
2023-01-30T19:18:58.532Z,1.17
2023-01-30T19:21:25.868Z,0.95
2023-01-30T19:23:53.294Z,1.10
2023-01-30T19:26:21.406Z,1.20
2023-01-30T19:28:48.274Z,1.10
2023-01-30T19:31:18.604Z,0.82
2023-01-30T19:33:48.311Z,1.20
2023-01-30T19:36:21.104Z,1.13
2023-01-30T19:38:48.429Z,0.95
2023-01-30T19:41:16.808Z,0.90
2023-01-30T19:43:43.519Z,0.82
2023-01-30T19:46:11.781Z,1.00
2023-01-30T19:48:39.422Z,1.00
2023-01-30T19:51:22.864Z,1.05
2023-01-30T19:53:57.458Z,1.20
2023-01-30T19:56:25.829Z,0.90
2023-01-30T19:58:54.894Z,1.05
2023-01-30T20:01:23.245Z,1.17
2023-01-30T20:03:49.976Z,1.20
2023-01-30T20:06:21.161Z,0.95
2023-01-30T20:08:50.151Z,1.23
2023-01-30T20:11:21.790Z,1.20
2023-01-30T20:13:48.892Z,1.10
2023-01-30T20:16:20.676Z,1.05
2023-01-30T20:18:56.486Z,1.10
2023-01-30T20:21:23.448Z,1.08
2023-01-30T20:23:50.380Z,1.02
2023-01-30T20:26:19.477Z,1.20
2023-01-30T20:28:46.225Z,1.65
2023-01-30T20:31:20.457Z,1.40
2023-01-30T20:33:47.599Z,1.45
2023-01-30T20:36:18.564Z,1.67
2023-01-30T20:38:46.439Z,1.90
2023-01-30T20:41:18.117Z,1.65
2023-01-30T20:43:47.277Z,1.60
2023-01-30T20:46:21.505Z,1.70
2023-01-30T20:48:48.738Z,1.85
2023-01-30T20:51:18.319Z,2.07
2023-01-30T20:53:50.594Z,1.90
2023-01-30T20:56:18.024Z,1.90
2023-01-30T20:58:44.695Z,1.90
2023-01-30T21:01:17.605Z,1.92
2023-01-30T21:03:46.043Z,1.60
2023-01-30T21:06:12.818Z,1.70
2023-01-30T21:08:40.005Z,1.77
2023-01-30T21:11:10.364Z,2.67
2023-01-30T21:13:37.427Z,1.80
2023-01-30T21:16:08.645Z,2.20
2023-01-30T21:18:37.087Z,1.92
2023-01-30T21:21:04.246Z,1.80
2023-01-30T21:23:31.833Z,2.00
2023-01-30T21:26:04.289Z,2.10
2023-01-30T21:28:32.026Z,2.07
2023-01-30T21:31:19.304Z,2.40
2023-01-30T21:33:46.287Z,1.73
2023-01-30T21:36:13.677Z,2.00
2023-01-30T21:38:59.005Z,1.88
2023-01-30T21:41:46.453Z,1.90
2023-01-30T21:44:14.042Z,2.00
2023-01-30T21:46:43.621Z,2.00
2023-01-30T21:49:10.271Z,1.98
2023-01-30T21:51:37.730Z,1.80
2023-01-30T21:54:04.428Z,1.67
2023-01-30T21:56:31.537Z,1.92
2023-01-30T21:58:59.376Z,1.77
2023-01-30T22:01:26.835Z,1.77
2023-01-30T22:03:53.524Z,2.00
2023-01-30T22:06:20.399Z,1.80
2023-01-30T22:08:46.969Z,2.00
2023-01-30T22:11:19.466Z,1.85
2023-01-30T22:13:46.595Z,2.05
2023-01-30T22:16:15.807Z,1.90
2023-01-30T22:18:44.012Z,1.87
2023-01-30T22:21:12.637Z,1.55
2023-01-30T22:23:44.469Z,1.60
2023-01-30T22:26:13.272Z,1.88
2023-01-30T22:28:40.347Z,1.65
2023-01-30T22:31:18.323Z,1.80
2023-01-30T22:33:53.548Z,1.60
2023-01-30T22:36:20.724Z,1.90
2023-01-30T22:38:49.151Z,1.70
2023-01-30T22:41:20.200Z,1.75
2023-01-30T22:43:49.291Z,1.83
2023-01-30T22:46:18.128Z,1.50
2023-01-30T22:48:45.537Z,1.70
2023-01-30T22:51:17.164Z,2.25
2023-01-30T22:53:46.113Z,1.70
2023-01-30T22:56:15.492Z,1.83
2023-01-30T22:58:42.658Z,1.90
2023-01-30T23:01:20.870Z,1.63
2023-01-30T23:03:49.092Z,1.40
2023-01-30T23:06:17.187Z,1.77
2023-01-30T23:08:46.114Z,1.60
2023-01-30T23:11:38.285Z,1.42
2023-01-30T23:14:13.813Z,1.80
2023-01-30T23:16:42.133Z,1.48
2023-01-30T23:19:10.065Z,1.38
2023-01-30T23:21:39.220Z,1.63
2023-01-30T23:24:07.634Z,1.40
2023-01-30T23:26:36.666Z,1.77
2023-01-30T23:29:07.433Z,1.85
2023-01-30T23:31:34.725Z,1.40
2023-01-30T23:34:03.386Z,1.60
2023-01-30T23:36:30.414Z,1.73
2023-01-30T23:38:58.604Z,1.55
2023-01-30T23:41:30.148Z,1.58
2023-01-30T23:43:57.929Z,1.73
2023-01-30T23:46:28.724Z,1.40
2023-01-30T23:49:06.600Z,1.83
2023-01-30T23:51:35.513Z,1.35
2023-01-30T23:54:02.468Z,1.60
2023-01-30T23:56:30.873Z,1.60
2023-01-30T23:58:57.960Z,1.50
